Map

Track Data

SID SEASON NUMBER BASIN SUBBASIN NAME ISO_TIME NATURE LAT LON WMO_WIND WMO_PRES WMO_AGENCY TRACK_TYPE DIST2LAND LANDFALL IFLAG USA_AGENCY USA_ATCF_ID USA_LAT USA_LON USA_RECORD USA_STATUS USA_WIND USA_PRES USA_SSHS USA_R34_NE USA_R34_SE USA_R34_SW USA_R34_NW USA_R50_NE USA_R50_SE USA_R50_SW USA_R50_NW USA_R64_NE USA_R64_SE USA_R64_SW USA_R64_NW USA_POCI USA_ROCI USA_RMW USA_EYE TOKYO_LAT TOKYO_LON TOKYO_GRADE TOKYO_WIND TOKYO_PRES TOKYO_R50_DIR TOKYO_R50_LONG TOKYO_R50_SHORT TOKYO_R30_DIR TOKYO_R30_LONG TOKYO_R30_SHORT TOKYO_LAND CMA_LAT CMA_LON CMA_CAT CMA_WIND CMA_PRES HKO_LAT HKO_LON HKO_CAT HKO_WIND HKO_PRES NEWDELHI_LAT NEWDELHI_LON NEWDELHI_GRADE NEWDELHI_WIND NEWDELHI_PRES NEWDELHI_CI NEWDELHI_DP NEWDELHI_POCI REUNION_LAT REUNION_LON REUNION_TYPE REUNION_WIND REUNION_PRES REUNION_TNUM REUNION_CI REUNION_RMW REUNION_R34_NE REUNION_R34_SE REUNION_R34_SW REUNION_R34_NW REUNION_R50_NE REUNION_R50_SE REUNION_R50_SW REUNION_R50_NW REUNION_R64_NE REUNION_R64_SE REUNION_R64_SW REUNION_R64_NW BOM_LAT BOM_LON BOM_TYPE BOM_WIND BOM_PRES BOM_TNUM BOM_CI BOM_RMW BOM_R34_NE BOM_R34_SE BOM_R34_SW BOM_R34_NW BOM_R50_NE BOM_R50_SE BOM_R50_SW BOM_R50_NW BOM_R64_NE BOM_R64_SE BOM_R64_SW BOM_R64_NW BOM_ROCI BOM_POCI BOM_EYE BOM_POS_METHOD BOM_PRES_METHOD NADI_LAT NADI_LON NADI_CAT NADI_WIND NADI_PRES WELLINGTON_LAT WELLINGTON_LON WELLINGTON_WIND WELLINGTON_PRES DS824_LAT DS824_LON DS824_STAGE DS824_WIND DS824_PRES TD9636_LAT TD9636_LON TD9636_STAGE TD9636_WIND TD9636_PRES TD9635_LAT TD9635_LON TD9635_WIND TD9635_PRES TD9635_ROCI NEUMANN_LAT NEUMANN_LON NEUMANN_CLASS NEUMANN_WIND NEUMANN_PRES MLC_LAT MLC_LON MLC_CLASS MLC_WIND MLC_PRES USA_GUST BOM_GUST BOM_GUST_PER REUNION_GUST REUNION_GUST_PER USA_SEAHGT USA_SEARAD_NE USA_SEARAD_SE USA_SEARAD_SW USA_SEARAD_NW STORM_SPEED STORM_DIR
2000299N10252 2000 100 EP MM PAUL 2000-10-25 06:00:00 TS 10.2000 -108.400 25 1007 hurdat_epa main 1049 1049 O_____________ hurdat_epa EP182000 10.2000 -108.400 TD 25 1007 -1 12 268
2000299N10252 2000 100 EP MM PAUL 2000-10-25 09:00:00 TS 10.1751 -109.015 main 1083 1083 P_____________ EP182000 10.1751 -109.015 TD 27 1007 -1 13 270
2000299N10252 2000 100 EP MM PAUL 2000-10-25 12:00:00 TS 10.2000 -109.700 30 1007 hurdat_epa main 1126 1126 O_____________ hurdat_epa EP182000 10.2000 -109.700 TD 30 1007 -1 15 275
2000299N10252 2000 100 EP MM PAUL 2000-10-25 15:00:00 TS 10.3001 -110.492 main 1169 1169 P_____________ EP182000 10.3001 -110.492 TD 30 1007 -1 16 277
2000299N10252 2000 100 EP MM PAUL 2000-10-25 18:00:00 TS 10.4000 -111.300 30 1007 hurdat_epa main 1207 1207 O_____________ hurdat_epa EP182000 10.4000 -111.300 TD 30 1007 -1 15 274
2000299N10252 2000 100 EP MM PAUL 2000-10-25 21:00:00 TS 10.4148 -112.023 main 1252 1252 P_____________ EP182000 10.4148 -112.023 TD 30 1007 -1 14 270
2000299N10252 2000 100 EP MM PAUL 2000-10-26 00:00:00 TS 10.4000 -112.700 30 1007 hurdat_epa main 1300 1300 O_____________ hurdat_epa EP182000 10.4000 -112.700 TD 30 1007 -1 13 270
2000299N10252 2000 100 EP MM PAUL 2000-10-26 03:00:00 TS 10.4073 -113.350 main 1343 1343 P_____________ EP182000 10.4073 -113.350 TD 30 1007 -1 13 270
2000299N10252 2000 100 EP MM PAUL 2000-10-26 06:00:00 TS 10.4000 -114.000 30 1007 hurdat_epa main 1395 1395 O_____________ hurdat_epa EP182000 10.4000 -114.000 TD 30 1007 -1 13 268
2000299N10252 2000 100 EP MM PAUL 2000-10-26 09:00:00 TS 10.3499 -114.700 main 1456 1456 P_____________ EP182000 10.3499 -114.700 TD 32 1006 -1 14 266
2000299N10252 2000 100 EP MM PAUL 2000-10-26 12:00:00 TS 10.3000 -115.400 35 1005 hurdat_epa main 1510 1510 O_____________ hurdat_epa EP182000 10.3000 -115.400 TS 35 1005 0 14 267
2000299N10252 2000 100 EP MM PAUL 2000-10-26 15:00:00 TS 10.2699 -116.080 main 1551 1551 P_____________ EP182000 10.2699 -116.080 TS 37 1004 0 13 270
2000299N10252 2000 100 EP MM PAUL 2000-10-26 18:00:00 TS 10.3000 -116.700 40 1003 hurdat_epa main 1579 1579 O_____________ hurdat_epa EP182000 10.3000 -116.700 TS 40 1003 0 11 277
2000299N10252 2000 100 EP MM PAUL 2000-10-26 21:00:00 TS 10.4123 -117.223 main 1594 1594 P_____________ EP182000 10.4123 -117.223 TS 37 1003 0 10 287
2000299N10252 2000 100 EP MM PAUL 2000-10-27 00:00:00 TS 10.6000 -117.700 35 1004 hurdat_epa main 1601 1596 O_____________ hurdat_epa EP182000 10.6000 -117.700 TS 35 1004 0 11 294
2000299N10252 2000 100 EP MM PAUL 2000-10-27 03:00:00 TS 10.8425 -118.215 main 1609 1600 P_____________ EP182000 10.8425 -118.215 TS 35 1004 0 11 297
2000299N10252 2000 100 EP MM PAUL 2000-10-27 06:00:00 TS 11.1000 -118.700 35 1005 hurdat_epa main 1611 1607 O_____________ hurdat_epa EP182000 11.1000 -118.700 TS 35 1005 0 10 299
2000299N10252 2000 100 EP MM PAUL 2000-10-27 09:00:00 TS 11.3222 -119.085 main 1617 1608 P_____________ EP182000 11.3222 -119.085 TS 35 1005 0 9 297
2000299N10252 2000 100 EP MM PAUL 2000-10-27 12:00:00 TS 11.5000 -119.500 35 1005 hurdat_epa main 1625 1625 O_____________ hurdat_epa EP182000 11.5000 -119.500 TS 35 1005 0 10 288
2000299N10252 2000 100 EP MM PAUL 2000-10-27 15:00:00 TS 11.6300 -120.062 main 1656 1654 P_____________ EP182000 11.6300 -120.062 TS 35 1005 0 12 280
2000299N10252 2000 100 EP MM PAUL 2000-10-27 18:00:00 TS 11.7000 -120.700 35 1005 hurdat_epa main 1689 1689 O_____________ hurdat_epa EP182000 11.7000 -120.700 TS 35 1005 0 13 274
2000299N10252 2000 100 EP MM PAUL 2000-10-27 21:00:00 TS 11.7148 -121.335 main 1733 1733 P_____________ EP182000 11.7148 -121.335 TS 32 1005 -1 13 270
2000299N10252 2000 100 EP MM PAUL 2000-10-28 00:00:00 TS 11.7000 -122.000 30 1006 hurdat_epa main 1785 1785 O_____________ hurdat_epa EP182000 11.7000 -122.000 TD 30 1006 -1 13 269
2000299N10252 2000 100 EP MM PAUL 2000-10-28 03:00:00 TS 11.6998 -122.685 main 1833 1833 P_____________ EP182000 11.6998 -122.685 TD 30 1006 -1 14 270
2000299N10252 2000 100 EP MM PAUL 2000-10-28 06:00:00 TS 11.7000 -123.400 30 1006 hurdat_epa main 1879 1879 O_____________ hurdat_epa EP182000 11.7000 -123.400 TD 30 1006 -1 14 270
2000299N10252 2000 100 EP MM PAUL 2000-10-28 09:00:00 TS 11.7072 -124.120 main 1926 1926 P_____________ EP182000 11.7072 -124.120 TD 30 1006 -1 15 270
2000299N10252 2000 100 EP MM PAUL 2000-10-28 12:00:00 TS 11.7000 -124.900 30 1006 hurdat_epa main 1983 1983 O_____________ hurdat_epa EP182000 11.7000 -124.900 TD 30 1006 -1 16 268
2000299N10252 2000 100 EP MM PAUL 2000-10-28 15:00:00 TS 11.6424 -125.778 main 2056 2056 P_____________ EP182000 11.6424 -125.778 TD 30 1006 -1 18 267
2000299N10252 2000 100 EP MM PAUL 2000-10-28 18:00:00 TS 11.6000 -126.700 30 1006 hurdat_epa main 2124 2124 O_____________ hurdat_epa EP182000 11.6000 -126.700 TD 30 1006 -1 18 270
2000299N10252 2000 100 EP MM PAUL 2000-10-28 21:00:00 TS 11.6279 -127.607 main 2193 2193 P_____________ EP182000 11.6279 -127.607 TD 27 1006 -1 18 273
2000299N10252 2000 100 EP MM PAUL 2000-10-29 00:00:00 TS 11.7000 -128.500 25 1007 hurdat_epa main 2256 O_____________ hurdat_epa EP182000 11.7000 -128.500 TD 25 1007 -1 18 275

About IBTrACS Database

This database is a web-friendly format of International Best Track Archive for Climate Stewardship (IBTrACS), a global best track data archive curated by NOAA dating back to 1842.

Updated: 2021-11-26